sensor_id;sensor_type;location;lat;lon;timestamp;pressure;altitude;pressure_sealevel;temperature
70415;BMP280;57837;52.064;113.478;2023-06-26T00:01:18;92748.22;;;37.75
70415;BMP280;57837;52.064;113.478;2023-06-26T00:04:25;92757.94;;;36.30
70415;BMP280;57837;52.064;113.478;2023-06-26T00:07:29;92761.59;;;36.70
70415;BMP280;57837;52.064;113.478;2023-06-26T00:10:33;92755.53;;;36.70
70415;BMP280;57837;52.064;113.478;2023-06-26T00:13:37;92752.09;;;35.61
70415;BMP280;57837;52.064;113.478;2023-06-26T00:16:41;92743.22;;;35.09
70415;BMP280;57837;52.064;113.478;2023-06-26T00:19:45;92754.81;;;34.92
70415;BMP280;57837;52.064;113.478;2023-06-26T00:22:50;92754.03;;;36.65
70415;BMP280;57837;52.064;113.478;2023-06-26T00:25:53;92746.47;;;36.59
70415;BMP280;57837;52.064;113.478;2023-06-26T00:28:56;92750.13;;;37.35
70415;BMP280;57837;52.064;113.478;2023-06-26T00:32:00;92739.28;;;36.99
70415;BMP280;57837;52.064;113.478;2023-06-26T00:35:04;92743.00;;;37.87
70415;BMP280;57837;52.064;113.478;2023-06-26T00:38:07;92728.75;;;36.82
70415;BMP280;57837;52.064;113.478;2023-06-26T00:41:12;92729.88;;;36.71
70415;BMP280;57837;52.064;113.478;2023-06-26T00:44:15;92737.19;;;37.65
70415;BMP280;57837;52.064;113.478;2023-06-26T00:47:20;92720.47;;;37.03
70415;BMP280;57837;52.064;113.478;2023-06-26T00:50:23;92716.28;;;37.30
70415;BMP280;57837;52.064;113.478;2023-06-26T00:53:28;92718.59;;;37.46
70415;BMP280;57837;52.064;113.478;2023-06-26T00:56:32;92717.38;;;38.78
70415;BMP280;57837;52.064;113.478;2023-06-26T00:59:39;92713.88;;;38.71
70415;BMP280;57837;52.064;113.478;2023-06-26T01:02:43;92713.19;;;38.71
70415;BMP280;57837;52.064;113.478;2023-06-26T01:05:48;92706.31;;;38.62
70415;BMP280;57837;52.064;113.478;2023-06-26T01:08:52;92707.41;;;38.01
70415;BMP280;57837;52.064;113.478;2023-06-26T01:11:57;92697.88;;;38.90
70415;BMP280;57837;52.064;113.478;2023-06-26T01:15:01;92690.03;;;38.16
70415;BMP280;57837;52.064;113.478;2023-06-26T01:18:05;92682.56;;;38.58
70415;BMP280;57837;52.064;113.478;2023-06-26T01:21:10;92676.69;;;39.34
70415;BMP280;57837;52.064;113.478;2023-06-26T01:24:18;92666.13;;;39.62
70415;BMP280;57837;52.064;113.478;2023-06-26T01:27:31;92654.81;;;39.14
70415;BMP280;57837;52.064;113.478;2023-06-26T01:30:42;92648.09;;;39.21
70415;BMP280;57837;52.064;113.478;2023-06-26T01:33:46;92648.38;;;38.31
70415;BMP280;57837;52.064;113.478;2023-06-26T01:36:49;92633.31;;;39.32
70415;BMP280;57837;52.064;113.478;2023-06-26T01:39:53;92636.41;;;39.78
70415;BMP280;57837;52.064;113.478;2023-06-26T01:42:57;92624.69;;;40.47
70415;BMP280;57837;52.064;113.478;2023-06-26T01:46:16;92629.41;;;40.43
70415;BMP280;57837;52.064;113.478;2023-06-26T01:49:47;92636.25;;;40.52
70415;BMP280;57837;52.064;113.478;2023-06-26T01:56:14;92626.91;;;39.71
70415;BMP280;57837;52.064;113.478;2023-06-26T01:59:20;92631.41;;;39.44
70415;BMP280;57837;52.064;113.478;2023-06-26T02:02:27;92626.97;;;39.81
70415;BMP280;57837;52.064;113.478;2023-06-26T02:05:31;92620.22;;;39.84
70415;BMP280;57837;52.064;113.478;2023-06-26T02:08:35;92621.72;;;40.05
70415;BMP280;57837;52.064;113.478;2023-06-26T02:11:39;92623.34;;;39.54
70415;BMP280;57837;52.064;113.478;2023-06-26T02:14:45;92621.28;;;39.47
70415;BMP280;57837;52.064;113.478;2023-06-26T02:17:49;92632.84;;;39.53
70415;BMP280;57837;52.064;113.478;2023-06-26T02:20:53;92627.78;;;39.98
70415;BMP280;57837;52.064;113.478;2023-06-26T02:23:56;92614.97;;;40.16
70415;BMP280;57837;52.064;113.478;2023-06-26T02:26:59;92619.13;;;40.27
70415;BMP280;57837;52.064;113.478;2023-06-26T02:30:03;92621.00;;;39.97
70415;BMP280;57837;52.064;113.478;2023-06-26T02:33:06;92626.06;;;39.56
70415;BMP280;57837;52.064;113.478;2023-06-26T02:36:10;92621.13;;;39.33
70415;BMP280;57837;52.064;113.478;2023-06-26T02:39:14;92623.66;;;39.13
70415;BMP280;57837;52.064;113.478;2023-06-26T02:42:19;92612.31;;;38.70
70415;BMP280;57837;52.064;113.478;2023-06-26T02:45:22;92631.03;;;38.52
70415;BMP280;57837;52.064;113.478;2023-06-26T02:48:25;92617.19;;;38.28
70415;BMP280;57837;52.064;113.478;2023-06-26T02:51:29;92613.03;;;38.21
70415;BMP280;57837;52.064;113.478;2023-06-26T02:54:34;92609.69;;;37.77
70415;BMP280;57837;52.064;113.478;2023-06-26T02:57:39;92610.00;;;37.55
70415;BMP280;57837;52.064;113.478;2023-06-26T03:00:42;92609.19;;;37.49
70415;BMP280;57837;52.064;113.478;2023-06-26T03:03:50;92603.56;;;37.35
70415;BMP280;57837;52.064;113.478;2023-06-26T03:06:54;92594.31;;;37.10
70415;BMP280;57837;52.064;113.478;2023-06-26T03:09:58;92591.81;;;36.84
70415;BMP280;57837;52.064;113.478;2023-06-26T03:13:02;92588.22;;;36.72
70415;BMP280;57837;52.064;113.478;2023-06-26T03:16:06;92587.25;;;37.29
70415;BMP280;57837;52.064;113.478;2023-06-26T03:19:09;92576.13;;;37.13
70415;BMP280;57837;52.064;113.478;2023-06-26T03:22:39;92579.06;;;36.89
70415;BMP280;57837;52.064;113.478;2023-06-26T03:25:43;92574.50;;;36.62
70415;BMP280;57837;52.064;113.478;2023-06-26T03:29:05;92567.91;;;36.35
70415;BMP280;57837;52.064;113.478;2023-06-26T03:32:09;92571.97;;;36.06
70415;BMP280;57837;52.064;113.478;2023-06-26T03:35:12;92569.47;;;35.29
70415;BMP280;57837;52.064;113.478;2023-06-26T03:38:15;92555.56;;;34.40
70415;BMP280;57837;52.064;113.478;2023-06-26T03:41:20;92556.28;;;34.41
70415;BMP280;57837;52.064;113.478;2023-06-26T03:44:24;92553.31;;;34.33
70415;BMP280;57837;52.064;113.478;2023-06-26T03:47:28;92548.34;;;33.17
70415;BMP280;57837;52.064;113.478;2023-06-26T03:50:31;92552.16;;;33.31
70415;BMP280;57837;52.064;113.478;2023-06-26T03:53:35;92543.47;;;33.53
70415;BMP280;57837;52.064;113.478;2023-06-26T03:56:39;92540.56;;;33.66
70415;BMP280;57837;52.064;113.478;2023-06-26T03:59:43;92538.06;;;33.72
70415;BMP280;57837;52.064;113.478;2023-06-26T04:02:47;92540.84;;;33.74
70415;BMP280;57837;52.064;113.478;2023-06-26T04:05:51;92549.38;;;33.69
70415;BMP280;57837;52.064;113.478;2023-06-26T04:08:55;92541.94;;;33.67
70415;BMP280;57837;52.064;113.478;2023-06-26T04:11:59;92538.56;;;33.88
70415;BMP280;57837;52.064;113.478;2023-06-26T04:15:03;92541.81;;;33.85
70415;BMP280;57837;52.064;113.478;2023-06-26T04:18:07;92539.75;;;34.05
70415;BMP280;57837;52.064;113.478;2023-06-26T04:21:13;92524.00;;;34.17
70415;BMP280;57837;52.064;113.478;2023-06-26T04:24:17;92524.44;;;33.88
70415;BMP280;57837;52.064;113.478;2023-06-26T04:27:20;92517.88;;;33.50
70415;BMP280;57837;52.064;113.478;2023-06-26T04:30:25;92518.69;;;33.13
70415;BMP280;57837;52.064;113.478;2023-06-26T04:33:29;92519.72;;;32.84
70415;BMP280;57837;52.064;113.478;2023-06-26T04:36:32;92521.69;;;32.64
70415;BMP280;57837;52.064;113.478;2023-06-26T04:39:36;92518.81;;;32.40
70415;BMP280;57837;52.064;113.478;2023-06-26T04:42:40;92506.66;;;32.20
70415;BMP280;57837;52.064;113.478;2023-06-26T04:45:43;92506.91;;;32.08
70415;BMP280;57837;52.064;113.478;2023-06-26T04:48:47;92504.22;;;32.08
70415;BMP280;57837;52.064;113.478;2023-06-26T04:51:50;92507.44;;;32.05
70415;BMP280;57837;52.064;113.478;2023-06-26T04:54:54;92499.09;;;31.96
70415;BMP280;57837;52.064;113.478;2023-06-26T04:57:58;92500.09;;;31.87
70415;BMP280;57837;52.064;113.478;2023-06-26T05:01:01;92500.47;;;31.80
70415;BMP280;57837;52.064;113.478;2023-06-26T05:04:05;92494.19;;;31.73
70415;BMP280;57837;52.064;113.478;2023-06-26T05:07:09;92477.81;;;31.65
70415;BMP280;57837;52.064;113.478;2023-06-26T05:10:12;92486.16;;;31.91
70415;BMP280;57837;52.064;113.478;2023-06-26T05:13:15;92470.25;;;31.95
70415;BMP280;57837;52.064;113.478;2023-06-26T05:16:20;92470.31;;;31.97
70415;BMP280;57837;52.064;113.478;2023-06-26T05:19:23;92470.56;;;31.85
70415;BMP280;57837;52.064;113.478;2023-06-26T05:22:27;92474.56;;;31.69
70415;BMP280;57837;52.064;113.478;2023-06-26T05:25:31;92461.44;;;31.24
70415;BMP280;57837;52.064;113.478;2023-06-26T05:28:35;92450.53;;;30.87
70415;BMP280;57837;52.064;113.478;2023-06-26T05:31:41;92451.91;;;30.88
70415;BMP280;57837;52.064;113.478;2023-06-26T05:34:48;92443.78;;;31.01
70415;BMP280;57837;52.064;113.478;2023-06-26T05:37:53;92443.59;;;31.13
70415;BMP280;57837;52.064;113.478;2023-06-26T05:40:57;92438.53;;;31.03
70415;BMP280;57837;52.064;113.478;2023-06-26T05:44:00;92426.53;;;31.04
70415;BMP280;57837;52.064;113.478;2023-06-26T05:47:04;92428.72;;;31.25
70415;BMP280;57837;52.064;113.478;2023-06-26T05:50:08;92427.81;;;31.36
70415;BMP280;57837;52.064;113.478;2023-06-26T05:53:11;92419.78;;;31.19
70415;BMP280;57837;52.064;113.478;2023-06-26T05:56:15;92432.28;;;31.14
70415;BMP280;57837;52.064;113.478;2023-06-26T05:59:18;92406.28;;;30.99
70415;BMP280;57837;52.064;113.478;2023-06-26T06:02:22;92421.03;;;30.85
70415;BMP280;57837;52.064;113.478;2023-06-26T06:05:26;92415.28;;;30.59
70415;BMP280;57837;52.064;113.478;2023-06-26T06:08:29;92410.72;;;30.46
70415;BMP280;57837;52.064;113.478;2023-06-26T06:11:33;92419.53;;;30.48
70415;BMP280;57837;52.064;113.478;2023-06-26T06:14:35;92411.66;;;30.68
70415;BMP280;57837;52.064;113.478;2023-06-26T06:17:39;92418.59;;;31.06
70415;BMP280;57837;52.064;113.478;2023-06-26T06:20:43;92408.19;;;31.14
70415;BMP280;57837;52.064;113.478;2023-06-26T06:23:47;92410.03;;;30.77
70415;BMP280;57837;52.064;113.478;2023-06-26T06:26:50;92414.69;;;30.60
70415;BMP280;57837;52.064;113.478;2023-06-26T06:29:54;92404.75;;;30.79
70415;BMP280;57837;52.064;113.478;2023-06-26T06:32:58;92398.00;;;30.93
70415;BMP280;57837;52.064;113.478;2023-06-26T06:36:02;92398.81;;;30.64
70415;BMP280;57837;52.064;113.478;2023-06-26T06:39:06;92398.06;;;30.46
70415;BMP280;57837;52.064;113.478;2023-06-26T06:42:10;92394.06;;;30.32
70415;BMP280;57837;52.064;113.478;2023-06-26T06:45:14;92397.09;;;30.40
70415;BMP280;57837;52.064;113.478;2023-06-26T06:48:18;92392.53;;;30.42
70415;BMP280;57837;52.064;113.478;2023-06-26T06:51:22;92385.47;;;30.49
70415;BMP280;57837;52.064;113.478;2023-06-26T06:54:26;92388.88;;;30.04
70415;BMP280;57837;52.064;113.478;2023-06-26T06:57:32;92406.66;;;29.55
70415;BMP280;57837;52.064;113.478;2023-06-26T07:00:41;92393.88;;;29.24
70415;BMP280;57837;52.064;113.478;2023-06-26T07:03:45;92390.63;;;29.26
70415;BMP280;57837;52.064;113.478;2023-06-26T07:06:49;92389.59;;;29.47
70415;BMP280;57837;52.064;113.478;2023-06-26T07:09:53;92389.47;;;29.58
70415;BMP280;57837;52.064;113.478;2023-06-26T07:12:56;92379.78;;;29.80
70415;BMP280;57837;52.064;113.478;2023-06-26T07:16:00;92376.78;;;29.88
70415;BMP280;57837;52.064;113.478;2023-06-26T07:19:04;92376.63;;;29.99
70415;BMP280;57837;52.064;113.478;2023-06-26T07:22:07;92370.81;;;29.74
70415;BMP280;57837;52.064;113.478;2023-06-26T07:25:11;92368.56;;;29.68
70415;BMP280;57837;52.064;113.478;2023-06-26T07:28:15;92345.59;;;29.77
70415;BMP280;57837;52.064;113.478;2023-06-26T07:31:18;92342.00;;;29.70
70415;BMP280;57837;52.064;113.478;2023-06-26T07:34:22;92332.94;;;29.77
70415;BMP280;57837;52.064;113.478;2023-06-26T07:37:26;92342.16;;;29.74
70415;BMP280;57837;52.064;113.478;2023-06-26T07:40:30;92328.47;;;29.37
70415;BMP280;57837;52.064;113.478;2023-06-26T07:43:33;92325.38;;;29.13
70415;BMP280;57837;52.064;113.478;2023-06-26T07:46:37;92324.69;;;28.99
70415;BMP280;57837;52.064;113.478;2023-06-26T07:49:41;92327.50;;;28.88
70415;BMP280;57837;52.064;113.478;2023-06-26T07:52:45;92305.03;;;28.93
70415;BMP280;57837;52.064;113.478;2023-06-26T07:55:48;92310.47;;;29.08
70415;BMP280;57837;52.064;113.478;2023-06-26T07:58:51;92293.22;;;29.25
70415;BMP280;57837;52.064;113.478;2023-06-26T08:01:57;92316.13;;;29.30
70415;BMP280;57837;52.064;113.478;2023-06-26T08:05:00;92315.56;;;29.18
70415;BMP280;57837;52.064;113.478;2023-06-26T08:08:03;92296.53;;;29.10
70415;BMP280;57837;52.064;113.478;2023-06-26T08:11:07;92291.53;;;29.02
70415;BMP280;57837;52.064;113.478;2023-06-26T08:14:11;92306.81;;;29.02
70415;BMP280;57837;52.064;113.478;2023-06-26T08:17:17;92304.25;;;29.04
70415;BMP280;57837;52.064;113.478;2023-06-26T08:20:21;92306.81;;;29.02
70415;BMP280;57837;52.064;113.478;2023-06-26T08:23:26;92295.94;;;28.98
70415;BMP280;57837;52.064;113.478;2023-06-26T08:26:29;92300.00;;;28.99
70415;BMP280;57837;52.064;113.478;2023-06-26T08:29:33;92295.88;;;28.96
70415;BMP280;57837;52.064;113.478;2023-06-26T08:32:36;92306.16;;;28.88
70415;BMP280;57837;52.064;113.478;2023-06-26T08:35:40;92299.06;;;28.78
70415;BMP280;57837;52.064;113.478;2023-06-26T08:38:43;92296.41;;;28.78
70415;BMP280;57837;52.064;113.478;2023-06-26T08:41:47;92303.59;;;28.76
70415;BMP280;57837;52.064;113.478;2023-06-26T08:44:50;92289.78;;;28.79
70415;BMP280;57837;52.064;113.478;2023-06-26T08:48:08;92292.84;;;28.74
70415;BMP280;57837;52.064;113.478;2023-06-26T08:51:17;92299.59;;;28.61
70415;BMP280;57837;52.064;113.478;2023-06-26T08:54:43;92280.13;;;28.59
70415;BMP280;57837;52.064;113.478;2023-06-26T08:57:49;92279.53;;;28.60
70415;BMP280;57837;52.064;113.478;2023-06-26T09:00:55;92304.09;;;28.59
70415;BMP280;57837;52.064;113.478;2023-06-26T09:04:05;92301.53;;;28.47
70415;BMP280;57837;52.064;113.478;2023-06-26T09:07:14;92298.47;;;28.39
70415;BMP280;57837;52.064;113.478;2023-06-26T09:10:20;92291.28;;;28.28
70415;BMP280;57837;52.064;113.478;2023-06-26T09:13:29;92308.00;;;28.17
70415;BMP280;57837;52.064;113.478;2023-06-26T09:16:39;92294.28;;;28.09
70415;BMP280;57837;52.064;113.478;2023-06-26T09:19:48;92305.44;;;28.05
70415;BMP280;57837;52.064;113.478;2023-06-26T09:22:51;92303.94;;;28.02
70415;BMP280;57837;52.064;113.478;2023-06-26T09:25:55;92303.41;;;27.92
70415;BMP280;57837;52.064;113.478;2023-06-26T09:28:59;92307.84;;;27.88
70415;BMP280;57837;52.064;113.478;2023-06-26T09:32:04;92315.59;;;27.84
70415;BMP280;57837;52.064;113.478;2023-06-26T09:35:07;92311.97;;;27.77
70415;BMP280;57837;52.064;113.478;2023-06-26T09:38:12;92308.63;;;27.77
70415;BMP280;57837;52.064;113.478;2023-06-26T09:41:17;92307.22;;;27.76
70415;BMP280;57837;52.064;113.478;2023-06-26T09:44:21;92312.94;;;27.70
70415;BMP280;57837;52.064;113.478;2023-06-26T09:47:25;92297.06;;;27.72
70415;BMP280;57837;52.064;113.478;2023-06-26T09:50:29;92311.28;;;27.77
70415;BMP280;57837;52.064;113.478;2023-06-26T09:53:35;92307.81;;;27.74
70415;BMP280;57837;52.064;113.478;2023-06-26T09:56:42;92299.03;;;27.72
70415;BMP280;57837;52.064;113.478;2023-06-26T09:59:46;92304.34;;;27.72
70415;BMP280;57837;52.064;113.478;2023-06-26T10:02:50;92296.50;;;27.74
70415;BMP280;57837;52.064;113.478;2023-06-26T10:05:56;92293.72;;;27.72
70415;BMP280;57837;52.064;113.478;2023-06-26T10:09:01;92290.03;;;27.65
70415;BMP280;57837;52.064;113.478;2023-06-26T10:12:17;92288.34;;;27.58
70415;BMP280;57837;52.064;113.478;2023-06-26T10:15:23;92290.34;;;27.46
70415;BMP280;57837;52.064;113.478;2023-06-26T10:18:28;92289.03;;;27.33
70415;BMP280;57837;52.064;113.478;2023-06-26T10:21:34;92291.97;;;27.26
70415;BMP280;57837;52.064;113.478;2023-06-26T10:24:42;92294.38;;;27.22
70415;BMP280;57837;52.064;113.478;2023-06-26T10:27:55;92305.00;;;27.22
70415;BMP280;57837;52.064;113.478;2023-06-26T10:31:01;92290.81;;;27.17
70415;BMP280;57837;52.064;113.478;2023-06-26T10:34:07;92301.13;;;27.11
70415;BMP280;57837;52.064;113.478;2023-06-26T10:37:12;92291.53;;;27.06
70415;BMP280;57837;52.064;113.478;2023-06-26T10:40:26;92299.78;;;26.98
70415;BMP280;57837;52.064;113.478;2023-06-26T10:43:30;92303.38;;;26.91
70415;BMP280;57837;52.064;113.478;2023-06-26T10:46:51;92297.94;;;26.78
70415;BMP280;57837;52.064;113.478;2023-06-26T10:49:55;92282.25;;;26.70
70415;BMP280;57837;52.064;113.478;2023-06-26T10:56:43;92283.72;;;26.73
70415;BMP280;57837;52.064;113.478;2023-06-26T10:59:47;92276.38;;;26.72
70415;BMP280;57837;52.064;113.478;2023-06-26T11:02:52;92274.88;;;26.69
70415;BMP280;57837;52.064;113.478;2023-06-26T11:06:16;92287.00;;;26.60
70415;BMP280;57837;52.064;113.478;2023-06-26T11:09:23;92287.81;;;26.39
70415;BMP280;57837;52.064;113.478;2023-06-26T11:12:44;92294.59;;;26.19
70415;BMP280;57837;52.064;113.478;2023-06-26T11:15:51;92283.84;;;26.06
70415;BMP280;57837;52.064;113.478;2023-06-26T11:18:58;92284.88;;;26.01
70415;BMP280;57837;52.064;113.478;2023-06-26T11:22:02;92286.47;;;25.94
70415;BMP280;57837;52.064;113.478;2023-06-26T11:25:09;92286.97;;;25.91
70415;BMP280;57837;52.064;113.478;2023-06-26T11:28:13;92285.31;;;25.85
70415;BMP280;57837;52.064;113.478;2023-06-26T11:31:34;92289.09;;;25.82
70415;BMP280;57837;52.064;113.478;2023-06-26T11:34:38;92293.56;;;25.68
70415;BMP280;57837;52.064;113.478;2023-06-26T11:37:42;92303.13;;;25.62
70415;BMP280;57837;52.064;113.478;2023-06-26T11:40:45;92306.78;;;25.57
70415;BMP280;57837;52.064;113.478;2023-06-26T11:43:51;92316.66;;;25.45
70415;BMP280;57837;52.064;113.478;2023-06-26T11:46:58;92320.75;;;25.36
70415;BMP280;57837;52.064;113.478;2023-06-26T11:50:05;92324.44;;;25.31
70415;BMP280;57837;52.064;113.478;2023-06-26T11:53:08;92329.66;;;25.19
70415;BMP280;57837;52.064;113.478;2023-06-26T11:56:15;92339.50;;;25.07
70415;BMP280;57837;52.064;113.478;2023-06-26T11:59:19;92349.56;;;24.99
70415;BMP280;57837;52.064;113.478;2023-06-26T12:02:22;92336.09;;;24.86
70415;BMP280;57837;52.064;113.478;2023-06-26T12:05:26;92343.06;;;24.91
70415;BMP280;57837;52.064;113.478;2023-06-26T12:08:30;92343.50;;;24.87
70415;BMP280;57837;52.064;113.478;2023-06-26T12:11:34;92354.09;;;24.87
70415;BMP280;57837;52.064;113.478;2023-06-26T12:14:38;92359.50;;;24.89
70415;BMP280;57837;52.064;113.478;2023-06-26T12:17:43;92359.56;;;24.80
70415;BMP280;57837;52.064;113.478;2023-06-26T12:20:47;92359.56;;;24.80
70415;BMP280;57837;52.064;113.478;2023-06-26T12:23:58;92368.47;;;24.74
70415;BMP280;57837;52.064;113.478;2023-06-26T12:27:08;92373.34;;;24.78
70415;BMP280;57837;52.064;113.478;2023-06-26T12:30:12;92376.56;;;24.76
70415;BMP280;57837;52.064;113.478;2023-06-26T12:33:15;92374.34;;;24.63
70415;BMP280;57837;52.064;113.478;2023-06-26T12:36:19;92363.44;;;24.48
70415;BMP280;57837;52.064;113.478;2023-06-26T12:39:22;92349.91;;;24.44
70415;BMP280;57837;52.064;113.478;2023-06-26T12:42:28;92348.03;;;24.15
70415;BMP280;57837;52.064;113.478;2023-06-26T12:45:38;92342.19;;;24.07
70415;BMP280;57837;52.064;113.478;2023-06-26T12:48:44;92345.13;;;24.02
70415;BMP280;57837;52.064;113.478;2023-06-26T12:51:50;92344.88;;;23.98
70415;BMP280;57837;52.064;113.478;2023-06-26T12:54:54;92353.63;;;23.81
70415;BMP280;57837;52.064;113.478;2023-06-26T12:57:59;92364.19;;;23.72
70415;BMP280;57837;52.064;113.478;2023-06-26T13:01:05;92376.97;;;23.75
70415;BMP280;57837;52.064;113.478;2023-06-26T13:04:17;92388.94;;;23.76
70415;BMP280;57837;52.064;113.478;2023-06-26T13:07:21;92379.50;;;23.83
70415;BMP280;57837;52.064;113.478;2023-06-26T13:10:28;92372.69;;;23.80
70415;BMP280;57837;52.064;113.478;2023-06-26T13:13:31;92385.88;;;23.60
70415;BMP280;57837;52.064;113.478;2023-06-26T13:16:35;92389.63;;;23.48
70415;BMP280;57837;52.064;113.478;2023-06-26T13:19:38;92395.88;;;23.43
70415;BMP280;57837;52.064;113.478;2023-06-26T13:22:41;92395.03;;;23.40
70415;BMP280;57837;52.064;113.478;2023-06-26T13:25:44;92392.09;;;23.46
70415;BMP280;57837;52.064;113.478;2023-06-26T13:28:48;92386.16;;;23.45
70415;BMP280;57837;52.064;113.478;2023-06-26T13:31:52;92379.84;;;23.31
70415;BMP280;57837;52.064;113.478;2023-06-26T13:34:55;92379.97;;;23.14
70415;BMP280;57837;52.064;113.478;2023-06-26T13:37:57;92370.59;;;23.03
70415;BMP280;57837;52.064;113.478;2023-06-26T13:41:01;92391.44;;;22.99
70415;BMP280;57837;52.064;113.478;2023-06-26T13:44:04;92397.56;;;23.02
70415;BMP280;57837;52.064;113.478;2023-06-26T13:47:27;92397.41;;;23.00
70415;BMP280;57837;52.064;113.478;2023-06-26T13:50:31;92404.53;;;23.07
70415;BMP280;57837;52.064;113.478;2023-06-26T13:53:55;92402.69;;;23.00
70415;BMP280;57837;52.064;113.478;2023-06-26T13:57:03;92406.97;;;22.86
70415;BMP280;57837;52.064;113.478;2023-06-26T14:00:09;92449.22;;;22.95
70415;BMP280;57837;52.064;113.478;2023-06-26T14:03:17;92541.31;;;23.08
70415;BMP280;57837;52.064;113.478;2023-06-26T14:06:21;92582.91;;;23.17
70415;BMP280;57837;52.064;113.478;2023-06-26T14:09:25;92601.53;;;23.20
70415;BMP280;57837;52.064;113.478;2023-06-26T14:12:29;92584.16;;;23.16
70415;BMP280;57837;52.064;113.478;2023-06-26T14:15:34;92564.28;;;23.15
70415;BMP280;57837;52.064;113.478;2023-06-26T14:18:54;92555.25;;;23.19
70415;BMP280;57837;52.064;113.478;2023-06-26T14:22:26;92554.56;;;23.18
70415;BMP280;57837;52.064;113.478;2023-06-26T14:25:30;92554.00;;;23.20
70415;BMP280;57837;52.064;113.478;2023-06-26T14:28:35;92550.97;;;23.23
70415;BMP280;57837;52.064;113.478;2023-06-26T14:31:38;92538.28;;;23.22
70415;BMP280;57837;52.064;113.478;2023-06-26T14:34:41;92530.34;;;23.12
70415;BMP280;57837;52.064;113.478;2023-06-26T14:37:44;92522.03;;;22.98
70415;BMP280;57837;52.064;113.478;2023-06-26T14:40:49;92514.22;;;22.91
70415;BMP280;57837;52.064;113.478;2023-06-26T14:43:52;92523.25;;;22.88
70415;BMP280;57837;52.064;113.478;2023-06-26T14:46:57;92524.34;;;22.85
70415;BMP280;57837;52.064;113.478;2023-06-26T14:50:00;92530.22;;;22.76
70415;BMP280;57837;52.064;113.478;2023-06-26T14:53:04;92540.81;;;22.58
70415;BMP280;57837;52.064;113.478;2023-06-26T14:56:07;92545.09;;;22.37
70415;BMP280;57837;52.064;113.478;2023-06-26T14:59:11;92553.72;;;22.12
70415;BMP280;57837;52.064;113.478;2023-06-26T15:02:15;92552.81;;;21.93
70415;BMP280;57837;52.064;113.478;2023-06-26T15:05:22;92567.34;;;21.77
70415;BMP280;57837;52.064;113.478;2023-06-26T15:08:25;92554.97;;;21.62
70415;BMP280;57837;52.064;113.478;2023-06-26T15:11:29;92551.50;;;21.52
70415;BMP280;57837;52.064;113.478;2023-06-26T15:14:32;92561.75;;;21.40
70415;BMP280;57837;52.064;113.478;2023-06-26T15:17:35;92554.75;;;21.35
70415;BMP280;57837;52.064;113.478;2023-06-26T15:20:38;92547.59;;;21.28
70415;BMP280;57837;52.064;113.478;2023-06-26T15:23:42;92545.91;;;21.16
70415;BMP280;57837;52.064;113.478;2023-06-26T15:26:46;92521.59;;;21.00
70415;BMP280;57837;52.064;113.478;2023-06-26T15:29:48;92528.66;;;20.90
70415;BMP280;57837;52.064;113.478;2023-06-26T15:32:51;92529.34;;;20.83
70415;BMP280;57837;52.064;113.478;2023-06-26T15:35:54;92506.28;;;20.74
70415;BMP280;57837;52.064;113.478;2023-06-26T15:38:57;92485.94;;;20.59
70415;BMP280;57837;52.064;113.478;2023-06-26T15:42:00;92491.59;;;20.48
70415;BMP280;57837;52.064;113.478;2023-06-26T15:45:05;92484.09;;;20.22
70415;BMP280;57837;52.064;113.478;2023-06-26T15:48:08;92472.06;;;19.73
70415;BMP280;57837;52.064;113.478;2023-06-26T15:51:13;92457.69;;;19.51
70415;BMP280;57837;52.064;113.478;2023-06-26T15:54:18;92462.41;;;19.45
70415;BMP280;57837;52.064;113.478;2023-06-26T15:57:21;92462.94;;;19.67
70415;BMP280;57837;52.064;113.478;2023-06-26T16:00:25;92452.63;;;19.76
70415;BMP280;57837;52.064;113.478;2023-06-26T16:03:28;92454.38;;;19.81
70415;BMP280;57837;52.064;113.478;2023-06-26T16:06:31;92463.66;;;19.90
70415;BMP280;57837;52.064;113.478;2023-06-26T16:09:34;92464.00;;;19.86
70415;BMP280;57837;52.064;113.478;2023-06-26T16:12:38;92458.25;;;19.80
70415;BMP280;57837;52.064;113.478;2023-06-26T16:15:41;92436.53;;;19.65
70415;BMP280;57837;52.064;113.478;2023-06-26T16:18:45;92430.72;;;19.51
70415;BMP280;57837;52.064;113.478;2023-06-26T16:21:49;92434.41;;;19.48
70415;BMP280;57837;52.064;113.478;2023-06-26T16:24:52;92446.13;;;19.39
70415;BMP280;57837;52.064;113.478;2023-06-26T16:27:55;92439.84;;;19.50
70415;BMP280;57837;52.064;113.478;2023-06-26T16:30:59;92434.59;;;19.50
70415;BMP280;57837;52.064;113.478;2023-06-26T16:34:02;92436.53;;;19.57
70415;BMP280;57837;52.064;113.478;2023-06-26T16:37:05;92441.44;;;19.53
70415;BMP280;57837;52.064;113.478;2023-06-26T16:40:12;92448.94;;;19.49
70415;BMP280;57837;52.064;113.478;2023-06-26T16:43:15;92450.53;;;19.52
70415;BMP280;57837;52.064;113.478;2023-06-26T16:46:19;92454.91;;;19.57
70415;BMP280;57837;52.064;113.478;2023-06-26T16:49:24;92453.50;;;19.56
70415;BMP280;57837;52.064;113.478;2023-06-26T16:52:27;92458.59;;;19.54
70415;BMP280;57837;52.064;113.478;2023-06-26T16:55:30;92450.16;;;19.48
70415;BMP280;57837;52.064;113.478;2023-06-26T16:58:33;92452.78;;;19.48
70415;BMP280;57837;52.064;113.478;2023-06-26T17:01:36;92441.25;;;19.51
70415;BMP280;57837;52.064;113.478;2023-06-26T17:04:40;92445.47;;;19.54
70415;BMP280;57837;52.064;113.478;2023-06-26T17:07:43;92454.56;;;19.53
70415;BMP280;57837;52.064;113.478;2023-06-26T17:10:47;92447.53;;;19.48
70415;BMP280;57837;52.064;113.478;2023-06-26T17:13:50;92449.81;;;19.51
70415;BMP280;57837;52.064;113.478;2023-06-26T17:16:53;92446.16;;;19.54
70415;BMP280;57837;52.064;113.478;2023-06-26T17:19:57;92428.63;;;19.42
70415;BMP280;57837;52.064;113.478;2023-06-26T17:23:01;92429.34;;;19.35